Decoded Metar for USSS (SVERDLOVSK in RUSSIA) (IATA:SVX) | Meteo·Mobile Aviation Weather
aviador You're here:

USSS Decoded Metar

SVERDLOVSK in RUSSIA
Report Time2018-10-23 04:30:00
UTC Time2018-10-23 04:51:54
Flight Rules vfr VFR
Wind220° at 12 kt
W.Decomp.*RWY 26: 7.1 kt HW 9.7 kt LCW
W.Rank220° ranks 20
Current wind is above 220° avg. (7.7)
Visibility9999 m
Phenomena:N/A
Clouds:Few 036 Hf
Expected CloudBase > 1,600 ft AGL from Temp-Dew spread
CeilingNone
Temp03°C (ISA -10)
Dew Point-1°C (75% RH)
AAT-3.4°C
QNH1012 hPa
Density Alt-390 ft
Elevation764 ft
Report Wrong Elevation
Raw Report
USSS 230430Z 22006MPS 9999 FEW036 03/M01 Q1012 R26R/290040 NOSIG
RMK QFE738/0985=

Extra information for USSS:More info

Metar Taf Metar & Taf Last 4 Metars F.Rules Stats Wind Profile Meteogram Temp Stats Airport Information Weather charts Add Link Nearby VenuesMetar ALERT Operation Metar Decoded Social comments